sensor_id;sensor_type;location;lat;lon;timestamp;pressure;altitude;pressure_sealevel;temperature;humidity
24160;BME280;62385;41.594;23.808;2023-12-14T00:02:01;94909.06;;;2.94;90.67
24160;BME280;62385;41.594;23.808;2023-12-14T00:04:26;94917.88;;;3.03;90.92
24160;BME280;62385;41.594;23.808;2023-12-14T00:06:52;94880.81;;;2.59;91.39
24160;BME280;62385;41.594;23.808;2023-12-14T00:09:17;94900.78;;;2.51;91.21
24160;BME280;62385;41.594;23.808;2023-12-14T00:11:43;94913.47;;;3.13;90.66
24160;BME280;62385;41.594;23.808;2023-12-14T00:14:09;94898.59;;;2.85;91.06
24160;BME280;62385;41.594;23.808;2023-12-14T00:16:34;94928.00;;;2.98;91.24
24160;BME280;62385;41.594;23.808;2023-12-14T00:19:00;94938.03;;;3.21;90.33
24160;BME280;62385;41.594;23.808;2023-12-14T00:21:26;94924.78;;;3.23;89.69
24160;BME280;62385;41.594;23.808;2023-12-14T00:23:51;94935.56;;;2.72;92.16
24160;BME280;62385;41.594;23.808;2023-12-14T00:26:17;94944.25;;;2.82;91.42
24160;BME280;62385;41.594;23.808;2023-12-14T00:28:43;94925.09;;;3.01;90.07
24160;BME280;62385;41.594;23.808;2023-12-14T00:31:09;94922.03;;;2.96;90.30
24160;BME280;62385;41.594;23.808;2023-12-14T00:33:37;94918.63;;;2.86;90.24
24160;BME280;62385;41.594;23.808;2023-12-14T00:36:04;94926.31;;;2.68;91.47
24160;BME280;62385;41.594;23.808;2023-12-14T00:38:29;94931.72;;;2.76;91.09
24160;BME280;62385;41.594;23.808;2023-12-14T00:40:55;94909.63;;;2.59;91.59
24160;BME280;62385;41.594;23.808;2023-12-14T00:43:21;94953.91;;;3.20;90.89
24160;BME280;62385;41.594;23.808;2023-12-14T00:45:47;94926.03;;;3.09;90.09
24160;BME280;62385;41.594;23.808;2023-12-14T00:48:12;94941.38;;;3.14;90.54
24160;BME280;62385;41.594;23.808;2023-12-14T00:50:38;94948.69;;;3.01;89.58
24160;BME280;62385;41.594;23.808;2023-12-14T00:53:03;94924.94;;;2.83;91.16
24160;BME280;62385;41.594;23.808;2023-12-14T00:55:29;94938.59;;;3.15;89.06
24160;BME280;62385;41.594;23.808;2023-12-14T00:57:55;94947.16;;;2.79;90.19
24160;BME280;62385;41.594;23.808;2023-12-14T01:00:20;94889.22;;;2.63;91.16
24160;BME280;62385;41.594;23.808;2023-12-14T01:02:46;94932.25;;;2.99;90.32
24160;BME280;62385;41.594;23.808;2023-12-14T01:05:12;94908.25;;;2.84;90.19
24160;BME280;62385;41.594;23.808;2023-12-14T01:07:37;94951.72;;;3.06;90.06
24160;BME280;62385;41.594;23.808;2023-12-14T01:10:03;94954.75;;;3.20;89.32
24160;BME280;62385;41.594;23.808;2023-12-14T01:12:29;94945.91;;;2.83;89.88
24160;BME280;62385;41.594;23.808;2023-12-14T01:14:55;94966.75;;;3.04;90.16
24160;BME280;62385;41.594;23.808;2023-12-14T01:17:20;94952.81;;;2.84;91.36
24160;BME280;62385;41.594;23.808;2023-12-14T01:19:46;94940.94;;;2.80;92.32
24160;BME280;62385;41.594;23.808;2023-12-14T01:22:12;94944.66;;;2.77;92.08
24160;BME280;62385;41.594;23.808;2023-12-14T01:24:37;94928.91;;;2.49;93.25
24160;BME280;62385;41.594;23.808;2023-12-14T01:27:03;94932.81;;;2.83;91.67
24160;BME280;62385;41.594;23.808;2023-12-14T01:29:29;94902.06;;;2.56;90.69
24160;BME280;62385;41.594;23.808;2023-12-14T01:31:54;94908.50;;;2.62;92.06
24160;BME280;62385;41.594;23.808;2023-12-14T01:34:20;94897.34;;;2.69;91.58
24160;BME280;62385;41.594;23.808;2023-12-14T01:36:46;94909.63;;;2.98;89.57
24160;BME280;62385;41.594;23.808;2023-12-14T01:39:11;94901.91;;;2.77;90.70
24160;BME280;62385;41.594;23.808;2023-12-14T01:41:37;94924.09;;;3.21;88.86
24160;BME280;62385;41.594;23.808;2023-12-14T01:44:03;94908.78;;;2.59;91.12
24160;BME280;62385;41.594;23.808;2023-12-14T01:46:28;94875.56;;;2.40;91.65
24160;BME280;62385;41.594;23.808;2023-12-14T01:48:54;94913.31;;;2.57;90.63
24160;BME280;62385;41.594;23.808;2023-12-14T01:51:20;94900.91;;;2.30;90.94
24160;BME280;62385;41.594;23.808;2023-12-14T01:53:45;94864.91;;;2.13;90.58
24160;BME280;62385;41.594;23.808;2023-12-14T01:56:11;94913.63;;;2.63;89.81
24160;BME280;62385;41.594;23.808;2023-12-14T01:58:37;94912.91;;;2.61;90.30
24160;BME280;62385;41.594;23.808;2023-12-14T02:01:08;94908.78;;;2.40;89.49
24160;BME280;62385;41.594;23.808;2023-12-14T02:03:36;94915.44;;;2.04;89.59
24160;BME280;62385;41.594;23.808;2023-12-14T02:06:09;94904.88;;;2.15;90.44
24160;BME280;62385;41.594;23.808;2023-12-14T02:08:34;94912.47;;;2.27;91.12
24160;BME280;62385;41.594;23.808;2023-12-14T02:11:00;94908.91;;;2.38;91.00
24160;BME280;62385;41.594;23.808;2023-12-14T02:13:25;94904.34;;;2.30;90.41
24160;BME280;62385;41.594;23.808;2023-12-14T02:15:52;94908.78;;;2.40;90.99
24160;BME280;62385;41.594;23.808;2023-12-14T02:18:19;94921.47;;;2.44;89.65
24160;BME280;62385;41.594;23.808;2023-12-14T02:20:44;94891.41;;;2.39;89.15
24160;BME280;62385;41.594;23.808;2023-12-14T02:23:10;94908.47;;;2.33;90.39
24160;BME280;62385;41.594;23.808;2023-12-14T02:25:36;94905.44;;;2.18;90.00
24160;BME280;62385;41.594;23.808;2023-12-14T02:28:01;94854.50;;;1.92;90.57
24160;BME280;62385;41.594;23.808;2023-12-14T02:30:27;94910.69;;;2.38;90.92
24160;BME280;62385;41.594;23.808;2023-12-14T02:32:52;94883.38;;;2.21;90.10
24160;BME280;62385;41.594;23.808;2023-12-14T02:35:18;94903.53;;;2.30;90.77
24160;BME280;62385;41.594;23.808;2023-12-14T02:37:44;94907.50;;;2.24;90.65
24160;BME280;62385;41.594;23.808;2023-12-14T02:40:10;94917.03;;;2.45;89.43
24160;BME280;62385;41.594;23.808;2023-12-14T02:42:36;94893.69;;;2.13;89.80
24160;BME280;62385;41.594;23.808;2023-12-14T02:45:02;94903.19;;;2.04;89.55
24160;BME280;62385;41.594;23.808;2023-12-14T02:47:29;94916.66;;;1.90;89.87
24160;BME280;62385;41.594;23.808;2023-12-14T02:49:55;94908.19;;;1.77;89.71
24160;BME280;62385;41.594;23.808;2023-12-14T02:52:21;94899.13;;;1.51;89.04
24160;BME280;62385;41.594;23.808;2023-12-14T02:54:47;94906.97;;;1.51;90.76
24160;BME280;62385;41.594;23.808;2023-12-14T02:57:13;94894.91;;;1.59;88.93
24160;BME280;62385;41.594;23.808;2023-12-14T02:59:39;94905.31;;;1.29;89.64
24160;BME280;62385;41.594;23.808;2023-12-14T03:02:05;94905.69;;;1.15;91.24
24160;BME280;62385;41.594;23.808;2023-12-14T03:04:31;94909.06;;;1.57;89.88
24160;BME280;62385;41.594;23.808;2023-12-14T03:06:56;94910.72;;;1.58;88.06
24160;BME280;62385;41.594;23.808;2023-12-14T03:09:22;94909.28;;;1.44;88.75
24160;BME280;62385;41.594;23.808;2023-12-14T03:11:49;94911.16;;;0.91;91.68
24160;BME280;62385;41.594;23.808;2023-12-14T03:14:15;94906.88;;;1.11;92.48
24160;BME280;62385;41.594;23.808;2023-12-14T03:16:41;94905.31;;;1.80;90.60
24160;BME280;62385;41.594;23.808;2023-12-14T03:19:06;94902.47;;;1.32;91.62
24160;BME280;62385;41.594;23.808;2023-12-14T03:21:32;94907.31;;;1.67;90.55
24160;BME280;62385;41.594;23.808;2023-12-14T03:23:57;94902.28;;;1.45;90.92
24160;BME280;62385;41.594;23.808;2023-12-14T03:26:23;94909.44;;;1.82;91.07
24160;BME280;62385;41.594;23.808;2023-12-14T03:28:49;94920.00;;;2.02;90.04
24160;BME280;62385;41.594;23.808;2023-12-14T03:31:15;94906.06;;;1.61;90.59
24160;BME280;62385;41.594;23.808;2023-12-14T03:33:42;94902.75;;;1.59;92.21
24160;BME280;62385;41.594;23.808;2023-12-14T03:36:08;94898.16;;;1.82;90.88
24160;BME280;62385;41.594;23.808;2023-12-14T03:38:34;94913.38;;;1.98;89.91
24160;BME280;62385;41.594;23.808;2023-12-14T03:40:59;94916.06;;;1.86;88.11
24160;BME280;62385;41.594;23.808;2023-12-14T03:43:26;94919.38;;;1.89;89.55
24160;BME280;62385;41.594;23.808;2023-12-14T03:45:52;94913.16;;;1.80;89.78
24160;BME280;62385;41.594;23.808;2023-12-14T03:48:18;94925.59;;;1.57;90.90
24160;BME280;62385;41.594;23.808;2023-12-14T03:50:43;94921.38;;;2.06;89.75
24160;BME280;62385;41.594;23.808;2023-12-14T03:53:09;94915.47;;;1.73;89.87
24160;BME280;62385;41.594;23.808;2023-12-14T03:55:34;94885.72;;;1.74;90.83
24160;BME280;62385;41.594;23.808;2023-12-14T03:58:00;94920.03;;;2.21;90.30
24160;BME280;62385;41.594;23.808;2023-12-14T04:00:26;94891.59;;;1.97;90.07
24160;BME280;62385;41.594;23.808;2023-12-14T04:02:52;94916.66;;;2.00;90.57
24160;BME280;62385;41.594;23.808;2023-12-14T04:05:17;94926.19;;;2.01;91.71
24160;BME280;62385;41.594;23.808;2023-12-14T04:07:43;94916.59;;;1.80;91.90
24160;BME280;62385;41.594;23.808;2023-12-14T04:10:09;94920.13;;;1.70;94.23
24160;BME280;62385;41.594;23.808;2023-12-14T04:12:39;94911.81;;;1.55;92.31
24160;BME280;62385;41.594;23.808;2023-12-14T04:15:06;94924.28;;;2.03;92.85
24160;BME280;62385;41.594;23.808;2023-12-14T04:17:32;94898.59;;;1.57;93.15
24160;BME280;62385;41.594;23.808;2023-12-14T04:19:58;94902.63;;;1.70;91.53
24160;BME280;62385;41.594;23.808;2023-12-14T04:22:24;94912.75;;;1.54;91.66
24160;BME280;62385;41.594;23.808;2023-12-14T04:24:50;94913.66;;;2.04;90.01
24160;BME280;62385;41.594;23.808;2023-12-14T04:27:16;94881.63;;;1.81;90.16
24160;BME280;62385;41.594;23.808;2023-12-14T04:29:41;94896.84;;;1.67;90.45
24160;BME280;62385;41.594;23.808;2023-12-14T04:32:07;94894.72;;;1.81;90.02
24160;BME280;62385;41.594;23.808;2023-12-14T04:34:33;94916.16;;;1.75;90.45
24160;BME280;62385;41.594;23.808;2023-12-14T04:36:58;94917.44;;;1.91;89.79
24160;BME280;62385;41.594;23.808;2023-12-14T04:39:24;94927.69;;;1.63;89.76
24160;BME280;62385;41.594;23.808;2023-12-14T04:41:51;94943.28;;;1.74;89.69
24160;BME280;62385;41.594;23.808;2023-12-14T04:44:18;94924.78;;;1.66;90.66
24160;BME280;62385;41.594;23.808;2023-12-14T04:46:43;94921.00;;;1.29;91.88
24160;BME280;62385;41.594;23.808;2023-12-14T04:49:09;94923.16;;;1.65;92.15
24160;BME280;62385;41.594;23.808;2023-12-14T04:51:35;94884.56;;;1.27;91.63
24160;BME280;62385;41.594;23.808;2023-12-14T04:54:00;94927.03;;;1.71;92.77
24160;BME280;62385;41.594;23.808;2023-12-14T04:56:26;94940.59;;;1.85;91.28
24160;BME280;62385;41.594;23.808;2023-12-14T04:58:51;94926.50;;;1.77;92.13
24160;BME280;62385;41.594;23.808;2023-12-14T05:01:17;94912.53;;;1.57;92.46
24160;BME280;62385;41.594;23.808;2023-12-14T05:03:43;94901.47;;;1.23;92.76
24160;BME280;62385;41.594;23.808;2023-12-14T05:06:09;94944.50;;;2.01;93.71
24160;BME280;62385;41.594;23.808;2023-12-14T05:08:34;94936.03;;;1.78;93.27
24160;BME280;62385;41.594;23.808;2023-12-14T05:11:01;94941.03;;;1.60;94.11
24160;BME280;62385;41.594;23.808;2023-12-14T05:13:26;94920.94;;;1.70;93.11
24160;BME280;62385;41.594;23.808;2023-12-14T05:15:52;94937.41;;;1.82;93.28
24160;BME280;62385;41.594;23.808;2023-12-14T05:18:18;94919.19;;;1.41;93.24
24160;BME280;62385;41.594;23.808;2023-12-14T05:20:44;94901.09;;;1.37;93.91
24160;BME280;62385;41.594;23.808;2023-12-14T05:23:11;94912.63;;;1.56;93.23
24160;BME280;62385;41.594;23.808;2023-12-14T05:25:38;94911.13;;;1.53;93.18
24160;BME280;62385;41.594;23.808;2023-12-14T05:28:03;94924.66;;;1.98;91.64
24160;BME280;62385;41.594;23.808;2023-12-14T05:30:30;94902.66;;;1.40;92.38
24160;BME280;62385;41.594;23.808;2023-12-14T05:32:55;94912.63;;;1.86;91.55
24160;BME280;62385;41.594;23.808;2023-12-14T05:35:21;94911.81;;;1.95;90.88
24160;BME280;62385;41.594;23.808;2023-12-14T05:37:47;94924.38;;;2.01;91.78
24160;BME280;62385;41.594;23.808;2023-12-14T05:40:13;94921.09;;;1.69;92.03
24160;BME280;62385;41.594;23.808;2023-12-14T05:42:38;94920.44;;;1.76;92.08
24160;BME280;62385;41.594;23.808;2023-12-14T05:45:05;94925.25;;;1.71;92.71
24160;BME280;62385;41.594;23.808;2023-12-14T05:47:31;94915.94;;;1.58;93.31
24160;BME280;62385;41.594;23.808;2023-12-14T05:49:58;94908.13;;;1.98;92.24
24160;BME280;62385;41.594;23.808;2023-12-14T05:52:24;94918.13;;;1.83;92.32
24160;BME280;62385;41.594;23.808;2023-12-14T05:54:50;94913.53;;;2.06;92.33
24160;BME280;62385;41.594;23.808;2023-12-14T05:57:16;94923.03;;;2.16;91.38
24160;BME280;62385;41.594;23.808;2023-12-14T05:59:41;94930.78;;;2.18;91.94
24160;BME280;62385;41.594;23.808;2023-12-14T06:02:07;94926.22;;;2.20;92.03
24160;BME280;62385;41.594;23.808;2023-12-14T06:04:33;94942.66;;;2.22;92.10
24160;BME280;62385;41.594;23.808;2023-12-14T06:06:59;94931.22;;;2.23;92.48
24160;BME280;62385;41.594;23.808;2023-12-14T06:09:25;94930.75;;;2.08;91.86
24160;BME280;62385;41.594;23.808;2023-12-14T06:12:02;94931.34;;;1.81;92.79
24160;BME280;62385;41.594;23.808;2023-12-14T06:14:28;94913.50;;;1.66;93.53
24160;BME280;62385;41.594;23.808;2023-12-14T06:16:54;94953.84;;;2.33;93.48
24160;BME280;62385;41.594;23.808;2023-12-14T06:19:20;94950.84;;;1.98;93.35
24160;BME280;62385;41.594;23.808;2023-12-14T06:21:46;94950.66;;;2.30;93.70
24160;BME280;62385;41.594;23.808;2023-12-14T06:24:12;94938.09;;;2.24;92.35
24160;BME280;62385;41.594;23.808;2023-12-14T06:26:47;94950.97;;;2.46;92.07
24160;BME280;62385;41.594;23.808;2023-12-14T06:29:12;94917.81;;;2.07;92.13
24160;BME280;62385;41.594;23.808;2023-12-14T06:31:38;94956.41;;;2.24;93.83
24160;BME280;62385;41.594;23.808;2023-12-14T06:34:05;94961.00;;;2.31;93.24
24160;BME280;62385;41.594;23.808;2023-12-14T06:36:31;94959.09;;;2.43;92.63
24160;BME280;62385;41.594;23.808;2023-12-14T06:38:58;94961.28;;;2.38;92.81
24160;BME280;62385;41.594;23.808;2023-12-14T06:41:24;94976.28;;;2.26;92.44
24160;BME280;62385;41.594;23.808;2023-12-14T06:43:50;94957.91;;;2.17;92.82
24160;BME280;62385;41.594;23.808;2023-12-14T06:46:16;94956.44;;;2.33;92.89
24160;BME280;62385;41.594;23.808;2023-12-14T06:48:42;94961.56;;;2.45;91.98
24160;BME280;62385;41.594;23.808;2023-12-14T06:51:08;94960.09;;;2.61;91.49
24160;BME280;62385;41.594;23.808;2023-12-14T06:53:40;94953.22;;;2.79;91.39
24160;BME280;62385;41.594;23.808;2023-12-14T06:56:06;94946.59;;;2.56;92.31
24160;BME280;62385;41.594;23.808;2023-12-14T06:58:35;94962.66;;;2.32;92.49
24160;BME280;62385;41.594;23.808;2023-12-14T07:01:01;94947.44;;;2.76;92.15
24160;BME280;62385;41.594;23.808;2023-12-14T07:03:26;94943.56;;;2.70;92.03
24160;BME280;62385;41.594;23.808;2023-12-14T07:05:52;94965.63;;;2.77;90.41
24160;BME280;62385;41.594;23.808;2023-12-14T07:08:18;94973.63;;;2.66;90.65
24160;BME280;62385;41.594;23.808;2023-12-14T07:10:43;94972.28;;;2.82;91.91
24160;BME280;62385;41.594;23.808;2023-12-14T07:13:09;94952.81;;;3.03;91.27
24160;BME280;62385;41.594;23.808;2023-12-14T07:15:35;94963.31;;;3.13;90.19
24160;BME280;62385;41.594;23.808;2023-12-14T07:18:00;94988.56;;;3.43;89.00
24160;BME280;62385;41.594;23.808;2023-12-14T07:20:27;94961.91;;;3.38;89.46
24160;BME280;62385;41.594;23.808;2023-12-14T07:22:53;94967.94;;;3.57;89.72
24160;BME280;62385;41.594;23.808;2023-12-14T07:25:18;94979.81;;;3.71;88.14
24160;BME280;62385;41.594;23.808;2023-12-14T07:27:44;94966.44;;;3.55;89.77
24160;BME280;62385;41.594;23.808;2023-12-14T07:30:12;94936.44;;;3.57;88.93
24160;BME280;62385;41.594;23.808;2023-12-14T07:32:38;94957.38;;;3.30;89.53
24160;BME280;62385;41.594;23.808;2023-12-14T07:35:04;94970.16;;;3.52;90.27
24160;BME280;62385;41.594;23.808;2023-12-14T07:37:30;94985.47;;;3.76;89.72
24160;BME280;62385;41.594;23.808;2023-12-14T07:39:56;94958.75;;;3.34;90.65
24160;BME280;62385;41.594;23.808;2023-12-14T07:42:23;94977.47;;;3.49;91.74
24160;BME280;62385;41.594;23.808;2023-12-14T07:44:49;94976.16;;;3.82;90.89
24160;BME280;62385;41.594;23.808;2023-12-14T07:47:15;94985.72;;;3.83;90.86
24160;BME280;62385;41.594;23.808;2023-12-14T07:49:41;94977.72;;;3.75;90.86
24160;BME280;62385;41.594;23.808;2023-12-14T07:52:06;94961.69;;;3.78;90.58
24160;BME280;62385;41.594;23.808;2023-12-14T07:54:32;94967.81;;;3.68;91.19
24160;BME280;62385;41.594;23.808;2023-12-14T07:56:58;94969.34;;;3.98;89.89
24160;BME280;62385;41.594;23.808;2023-12-14T07:59:23;94979.91;;;3.79;91.33
24160;BME280;62385;41.594;23.808;2023-12-14T08:01:49;94988.75;;;3.78;90.89
24160;BME280;62385;41.594;23.808;2023-12-14T08:04:15;94972.53;;;3.55;91.13
24160;BME280;62385;41.594;23.808;2023-12-14T08:06:40;94971.94;;;3.61;91.22
24160;BME280;62385;41.594;23.808;2023-12-14T08:09:06;94979.81;;;3.61;90.90
24160;BME280;62385;41.594;23.808;2023-12-14T08:11:33;95001.38;;;3.55;90.94
24160;BME280;62385;41.594;23.808;2023-12-14T08:13:58;95009.81;;;3.59;91.42
24160;BME280;62385;41.594;23.808;2023-12-14T08:16:24;94978.25;;;3.78;91.59
24160;BME280;62385;41.594;23.808;2023-12-14T08:18:50;95001.06;;;3.78;90.88
24160;BME280;62385;41.594;23.808;2023-12-14T08:21:17;95002.53;;;3.90;91.31
24160;BME280;62385;41.594;23.808;2023-12-14T08:23:43;94998.84;;;3.83;91.20
24160;BME280;62385;41.594;23.808;2023-12-14T08:26:09;94975.94;;;3.75;90.63
24160;BME280;62385;41.594;23.808;2023-12-14T08:28:37;94995.13;;;3.76;91.11
24160;BME280;62385;41.594;23.808;2023-12-14T08:31:03;95001.16;;;3.86;90.87
24160;BME280;62385;41.594;23.808;2023-12-14T08:33:30;94981.72;;;3.69;90.71
24160;BME280;62385;41.594;23.808;2023-12-14T08:35:56;94990.19;;;3.44;91.30
24160;BME280;62385;41.594;23.808;2023-12-14T08:38:22;94970.31;;;3.51;92.38
24160;BME280;62385;41.594;23.808;2023-12-14T08:40:48;94952.81;;;3.13;92.76
24160;BME280;62385;41.594;23.808;2023-12-14T08:43:14;94955.34;;;3.70;91.55
24160;BME280;62385;41.594;23.808;2023-12-14T08:45:40;94980.78;;;4.07;91.51
24160;BME280;62385;41.594;23.808;2023-12-14T08:48:06;94967.63;;;4.16;90.42
24160;BME280;62385;41.594;23.808;2023-12-14T08:50:31;94908.19;;;4.15;90.39
24160;BME280;62385;41.594;23.808;2023-12-14T08:52:57;94957.84;;;4.36;90.37
24160;BME280;62385;41.594;23.808;2023-12-14T08:55:26;94947.13;;;4.30;90.04
24160;BME280;62385;41.594;23.808;2023-12-14T08:57:52;94940.41;;;4.17;90.74
24160;BME280;62385;41.594;23.808;2023-12-14T09:00:18;94964.03;;;4.17;91.28
24160;BME280;62385;41.594;23.808;2023-12-14T09:02:45;94962.53;;;4.42;89.96
24160;BME280;62385;41.594;23.808;2023-12-14T09:05:14;94955.66;;;4.04;90.67
24160;BME280;62385;41.594;23.808;2023-12-14T09:07:42;94950.06;;;4.17;90.48
24160;BME280;62385;41.594;23.808;2023-12-14T09:10:08;94966.75;;;4.53;89.85
24160;BME280;62385;41.594;23.808;2023-12-14T09:12:34;94957.31;;;4.33;90.68
24160;BME280;62385;41.594;23.808;2023-12-14T09:15:00;94918.00;;;4.41;90.06
24160;BME280;62385;41.594;23.808;2023-12-14T09:17:26;94931.63;;;4.54;90.73
24160;BME280;62385;41.594;23.808;2023-12-14T09:19:58;94895.63;;;4.37;89.76
24160;BME280;62385;41.594;23.808;2023-12-14T09:22:25;94934.50;;;4.78;88.19
24160;BME280;62385;41.594;23.808;2023-12-14T09:24:50;94951.56;;;4.74;87.85
24160;BME280;62385;41.594;23.808;2023-12-14T09:27:16;94914.72;;;4.39;88.70
24160;BME280;62385;41.594;23.808;2023-12-14T09:29:42;94926.22;;;4.55;87.81
24160;BME280;62385;41.594;23.808;2023-12-14T09:32:08;94953.88;;;4.77;87.54
24160;BME280;62385;41.594;23.808;2023-12-14T09:34:34;94919.56;;;4.34;88.25
24160;BME280;62385;41.594;23.808;2023-12-14T09:37:00;94939.38;;;4.55;90.02
24160;BME280;62385;41.594;23.808;2023-12-14T09:39:25;94931.09;;;4.68;88.49
24160;BME280;62385;41.594;23.808;2023-12-14T09:42:03;94906.25;;;4.98;86.86
24160;BME280;62385;41.594;23.808;2023-12-14T09:44:31;94889.56;;;4.89;87.30
24160;BME280;62385;41.594;23.808;2023-12-14T09:47:00;94909.13;;;4.87;87.53
24160;BME280;62385;41.594;23.808;2023-12-14T09:49:26;94907.91;;;4.99;88.54
24160;BME280;62385;41.594;23.808;2023-12-14T09:51:57;94900.06;;;5.42;86.75
24160;BME280;62385;41.594;23.808;2023-12-14T09:54:24;94893.84;;;5.26;86.74
24160;BME280;62385;41.594;23.808;2023-12-14T09:56:49;94853.00;;;4.78;87.66
24160;BME280;62385;41.594;23.808;2023-12-14T09:59:16;94893.41;;;5.38;86.66
24160;BME280;62385;41.594;23.808;2023-12-14T10:01:42;94873.72;;;4.99;87.31
24160;BME280;62385;41.594;23.808;2023-12-14T10:04:12;94870.63;;;5.03;87.63
24160;BME280;62385;41.594;23.808;2023-12-14T10:06:40;94867.22;;;5.11;88.17
24160;BME280;62385;41.594;23.808;2023-12-14T10:09:06;94865.19;;;5.48;87.48
24160;BME280;62385;41.594;23.808;2023-12-14T10:11:36;94856.84;;;5.53;87.16
24160;BME280;62385;41.594;23.808;2023-12-14T10:14:02;94849.41;;;5.48;85.72
24160;BME280;62385;41.594;23.808;2023-12-14T10:16:30;94904.69;;;5.48;87.47
24160;BME280;62385;41.594;23.808;2023-12-14T10:18:58;94894.94;;;5.67;85.98
24160;BME280;62385;41.594;23.808;2023-12-14T10:21:27;94868.59;;;5.67;86.63
24160;BME280;62385;41.594;23.808;2023-12-14T10:23:56;94875.25;;;5.79;87.36
24160;BME280;62385;41.594;23.808;2023-12-14T10:26:23;94867.88;;;5.56;87.99
24160;BME280;62385;41.594;23.808;2023-12-14T10:28:52;94846.66;;;5.58;86.93
24160;BME280;62385;41.594;23.808;2023-12-14T10:31:19;94863.38;;;5.75;87.47
24160;BME280;62385;41.594;23.808;2023-12-14T10:33:45;94852.22;;;5.81;88.40
24160;BME280;62385;41.594;23.808;2023-12-14T10:36:13;94832.78;;;6.08;87.40
24160;BME280;62385;41.594;23.808;2023-12-14T10:38:40;94832.56;;;6.59;85.22
24160;BME280;62385;41.594;23.808;2023-12-14T10:41:09;94835.97;;;6.27;86.66
24160;BME280;62385;41.594;23.808;2023-12-14T10:43:38;94805.53;;;6.57;86.13
24160;BME280;62385;41.594;23.808;2023-12-14T10:46:09;94818.06;;;6.87;85.76
24160;BME280;62385;41.594;23.808;2023-12-14T10:48:36;94785.59;;;6.63;85.34
24160;BME280;62385;41.594;23.808;2023-12-14T10:51:06;94814.63;;;6.87;85.12
24160;BME280;62385;41.594;23.808;2023-12-14T10:53:34;94819.91;;;7.11;84.27
24160;BME280;62385;41.594;23.808;2023-12-14T10:56:02;94815.25;;;7.21;83.69
24160;BME280;62385;41.594;23.808;2023-12-14T10:59:02;94748.50;;;6.88;82.34
24160;BME280;62385;41.594;23.808;2023-12-14T11:01:32;94800.78;;;6.77;83.37
24160;BME280;62385;41.594;23.808;2023-12-14T11:03:59;94805.38;;;7.15;83.31
24160;BME280;62385;41.594;23.808;2023-12-14T11:08:54;94794.84;;;7.07;84.44
24160;BME280;62385;41.594;23.808;2023-12-14T11:11:21;94797.59;;;7.22;84.22
24160;BME280;62385;41.594;23.808;2023-12-14T11:13:52;94783.59;;;7.21;83.92
24160;BME280;62385;41.594;23.808;2023-12-14T11:16:22;94785.91;;;7.24;83.49
24160;BME280;62385;41.594;23.808;2023-12-14T11:18:48;94796.47;;;7.32;83.33
24160;BME280;62385;41.594;23.808;2023-12-14T11:21:34;94806.81;;;7.34;82.47
24160;BME280;62385;41.594;23.808;2023-12-14T11:24:00;94816.91;;;7.22;83.49
24160;BME280;62385;41.594;23.808;2023-12-14T11:26:26;94794.97;;;7.22;83.62
24160;BME280;62385;41.594;23.808;2023-12-14T11:28:54;94783.75;;;7.28;83.69
24160;BME280;62385;41.594;23.808;2023-12-14T11:31:19;94770.06;;;7.08;85.23
24160;BME280;62385;41.594;23.808;2023-12-14T11:33:46;94766.13;;;7.12;84.80
24160;BME280;62385;41.594;23.808;2023-12-14T11:36:13;94692.78;;;6.67;84.27
24160;BME280;62385;41.594;23.808;2023-12-14T11:38:40;94770.22;;;7.31;84.32
24160;BME280;62385;41.594;23.808;2023-12-14T11:41:05;94776.97;;;7.25;84.11
24160;BME280;62385;41.594;23.808;2023-12-14T11:43:39;94768.38;;;7.39;84.09
24160;BME280;62385;41.594;23.808;2023-12-14T11:46:05;94777.34;;;7.14;85.41
24160;BME280;62385;41.594;23.808;2023-12-14T11:48:31;94758.16;;;7.36;84.14
24160;BME280;62385;41.594;23.808;2023-12-14T11:50:56;94764.25;;;7.45;84.54
24160;BME280;62385;41.594;23.808;2023-12-14T11:53:22;94771.31;;;7.53;83.74
24160;BME280;62385;41.594;23.808;2023-12-14T11:55:48;94767.94;;;7.67;83.05
24160;BME280;62385;41.594;23.808;2023-12-14T11:58:15;94764.34;;;7.60;82.73
24160;BME280;62385;41.594;23.808;2023-12-14T12:00:41;94749.63;;;7.73;82.69
24160;BME280;62385;41.594;23.808;2023-12-14T12:03:18;94740.88;;;7.73;82.70
24160;BME280;62385;41.594;23.808;2023-12-14T12:05:49;94747.09;;;7.80;82.68
24160;BME280;62385;41.594;23.808;2023-12-14T12:08:16;94758.72;;;7.63;83.32
24160;BME280;62385;41.594;23.808;2023-12-14T12:10:44;94746.31;;;7.71;82.64
24160;BME280;62385;41.594;23.808;2023-12-14T12:13:14;94748.13;;;7.71;83.32
24160;BME280;62385;41.594;23.808;2023-12-14T12:15:40;94748.34;;;7.61;84.40
24160;BME280;62385;41.594;23.808;2023-12-14T12:18:07;94751.09;;;7.76;83.56
24160;BME280;62385;41.594;23.808;2023-12-14T12:20:33;94761.69;;;7.68;82.59
24160;BME280;62385;41.594;23.808;2023-12-14T12:23:00;94737.94;;;7.60;83.67
24160;BME280;62385;41.594;23.808;2023-12-14T12:25:26;94728.97;;;7.77;83.05
24160;BME280;62385;41.594;23.808;2023-12-14T12:27:54;94749.41;;;7.83;83.09
24160;BME280;62385;41.594;23.808;2023-12-14T12:56:54;94757.44;;;7.51;86.49
24160;BME280;62385;41.594;23.808;2023-12-14T12:59:20;94729.19;;;7.12;87.71
24160;BME280;62385;41.594;23.808;2023-12-14T13:04:41;94715.16;;;7.59;86.57
24160;BME280;62385;41.594;23.808;2023-12-14T13:07:07;94710.84;;;7.66;85.46
24160;BME280;62385;41.594;23.808;2023-12-14T13:09:33;94715.22;;;7.81;85.17
24160;BME280;62385;41.594;23.808;2023-12-14T13:11:58;94749.09;;;8.09;84.71
24160;BME280;62385;41.594;23.808;2023-12-14T13:14:24;94740.28;;;7.94;84.56
24160;BME280;62385;41.594;23.808;2023-12-14T13:16:50;94748.44;;;7.76;85.50
24160;BME280;62385;41.594;23.808;2023-12-14T13:19:15;94737.53;;;7.40;87.87
24160;BME280;62385;41.594;23.808;2023-12-14T13:21:41;94711.59;;;7.43;87.27
24160;BME280;62385;41.594;23.808;2023-12-14T13:24:07;94752.34;;;7.88;86.31
24160;BME280;62385;41.594;23.808;2023-12-14T13:26:33;94746.00;;;8.05;85.28
24160;BME280;62385;41.594;23.808;2023-12-14T13:28:59;94696.16;;;7.63;84.71